Time;durP1;ratioP1;P1;durP2;ratioP2;P2;SDS_P1;SDS_P2;PMS_P1;PMS_P2;Temp;Humidity;BMP_temperature;BMP_pressure;BME280_temperature;BME280_humidity;BME280_pressure;Samples;Min_cycle;Max_cycle;Signal;HPM_P1;HPM_P2
2023/02/12 00:01:09;;;;;;;12.23;6.60;;;7.30;99.90;;;;;;5113025;28;20257;-58
2023/02/12 00:03:37;;;;;;;8.97;5.20;;;7.30;99.90;;;;;;5113403;27;20233;-59
2023/02/12 00:06:05;;;;;;;11.37;5.20;;;7.20;99.90;;;;;;5114763;27;20361;-58
2023/02/12 00:08:36;;;;;;;11.90;5.60;;;7.20;99.90;;;;;;5117467;27;20237;-59
2023/02/12 00:11:08;;;;;;;10.33;5.13;;;7.20;99.90;;;;;;5113788;28;20237;-59
2023/02/12 00:13:37;;;;;;;9.50;5.10;;;7.20;99.90;;;;;;5113524;28;20256;-58
2023/02/12 00:16:07;;;;;;;9.67;4.50;;;7.20;99.90;;;;;;5113164;28;20217;-59
2023/02/12 00:18:36;;;;;;;8.60;4.77;;;7.20;99.90;;;;;;5113555;28;20320;-58
2023/02/12 00:21:07;;;;;;;8.50;4.60;;;7.20;99.90;;;;;;5113683;28;20271;-58
2023/02/12 00:23:39;;;;;;;9.00;4.83;;;7.20;99.90;;;;;;5119165;27;20225;-58
2023/02/12 00:26:09;;;;;;;10.57;5.20;;;7.20;99.90;;;;;;5133834;27;20251;-59
2023/02/12 00:28:38;;;;;;;8.47;5.23;;;7.20;99.90;;;;;;5127600;27;20632;-58
2023/02/12 00:31:08;;;;;;;11.20;5.40;;;7.20;99.90;;;;;;5094177;28;20244;-59
2023/02/12 00:33:36;;;;;;;9.73;4.90;;;7.20;99.90;;;;;;5112956;28;20228;-59
2023/02/12 00:36:06;;;;;;;10.53;5.17;;;7.20;99.90;;;;;;5113249;28;20772;-58
2023/02/12 00:38:36;;;;;;;7.50;4.27;;;7.20;99.90;;;;;;5102989;28;20248;-58
2023/02/12 00:41:04;;;;;;;6.67;4.30;;;7.20;99.90;;;;;;5113231;28;20225;-58
2023/02/12 00:43:32;;;;;;;8.77;4.03;;;7.20;99.90;;;;;;5094478;28;20246;-58
2023/02/12 00:46:01;;;;;;;6.83;4.10;;;7.20;99.90;;;;;;5113057;28;20308;-58
2023/02/12 00:48:29;;;;;;;6.13;3.60;;;7.20;99.90;;;;;;5112868;28;20684;-58
2023/02/12 00:50:57;;;;;;;8.20;3.63;;;7.30;99.90;;;;;;5094777;28;20238;-58
2023/02/12 00:53:25;;;;;;;8.17;3.63;;;7.30;99.90;;;;;;5113197;28;20225;-58
2023/02/12 00:55:54;;;;;;;5.97;4.00;;;7.20;99.90;;;;;;5113040;28;20218;-58
2023/02/12 00:58:23;;;;;;;6.67;3.47;;;7.20;99.90;;;;;;5113152;28;20226;-58
2023/02/12 01:00:51;;;;;;;5.20;2.80;;;7.20;99.90;;;;;;5112112;28;20241;-58
2023/02/12 01:03:20;;;;;;;5.97;3.43;;;7.30;99.90;;;;;;5112918;28;20715;-58
2023/02/12 01:05:48;;;;;;;6.27;3.07;;;7.30;99.90;;;;;;5116643;28;20217;-58
2023/02/12 01:08:17;;;;;;;7.30;3.30;;;7.30;99.90;;;;;;5112725;28;20217;-59
2023/02/12 01:10:45;;;;;;;5.33;2.90;;;7.30;99.90;;;;;;5111513;28;20246;-59
2023/02/12 01:13:15;;;;;;;4.57;2.80;;;7.30;99.90;;;;;;5116473;28;20217;-58
2023/02/12 01:15:43;;;;;;;4.83;2.73;;;7.20;99.90;;;;;;5094130;28;20233;-58
2023/02/12 01:18:11;;;;;;;5.80;2.77;;;7.20;99.90;;;;;;5078236;28;20241;-59
2023/02/12 01:20:40;;;;;;;4.17;2.50;;;7.20;99.90;;;;;;5095939;28;20213;-58
2023/02/12 01:23:08;;;;;;;6.07;2.90;;;7.20;99.90;;;;;;5116993;28;20317;-59
2023/02/12 01:25:38;;;;;;;5.00;2.67;;;7.20;99.90;;;;;;5116759;28;20720;-58
2023/02/12 01:28:06;;;;;;;3.80;2.47;;;7.20;99.90;;;;;;5116584;28;20229;-58
2023/02/12 01:30:35;;;;;;;4.40;2.70;;;7.20;99.90;;;;;;5097401;28;20268;-58
2023/02/12 01:33:03;;;;;;;5.00;2.70;;;7.20;99.90;;;;;;5116707;28;20226;-58
2023/02/12 01:35:31;;;;;;;5.67;2.67;;;7.10;99.90;;;;;;5098037;28;20229;-59
2023/02/12 01:38:00;;;;;;;5.37;2.13;;;7.10;99.90;;;;;;5116138;28;20225;-58
2023/02/12 01:40:28;;;;;;;5.50;2.60;;;7.20;99.90;;;;;;5116224;28;20703;-58
2023/02/12 01:42:59;;;;;;;5.90;2.53;;;7.20;99.90;;;;;;5116455;28;20237;-59
2023/02/12 01:45:53;;;;;;;4.70;2.77;;;7.40;99.90;;;;;;5091808;28;20234;-59
2023/02/12 01:48:25;;;;;;;4.77;2.80;;;7.30;99.90;;;;;;5113813;27;20618;-58
2023/02/12 01:50:55;;;;;;;4.37;2.77;;;7.30;99.90;;;;;;5136615;27;20213;-59
2023/02/12 01:53:29;;;;;;;4.80;2.97;;;7.30;99.90;;;;;;5118277;27;20229;-59
2023/02/12 01:56:01;;;;;;;5.07;2.90;;;7.40;99.90;;;;;;5136930;27;20712;-58
2023/02/12 01:58:33;;;;;;;3.90;2.43;;;7.60;99.90;;;;;;5113138;28;20248;-59
2023/02/12 02:01:06;;;;;;;5.53;3.00;;;7.70;99.90;;;;;;5115206;28;20238;-59
2023/02/12 02:03:36;;;;;;;6.03;3.47;;;7.60;99.90;;;;;;5118678;27;20222;-58
2023/02/12 02:06:10;;;;;;;4.63;3.23;;;7.60;99.90;;;;;;5115724;28;20218;-59
2023/02/12 02:08:40;;;;;;;5.90;3.03;;;7.50;99.90;;;;;;5115396;28;20226;-58
2023/02/12 02:16:45;;;;;;;5.37;3.00;;;7.30;99.90;;;;;;5115702;28;20741;-59
2023/02/12 02:19:27;;;;;;;6.63;3.20;;;7.30;99.90;;;;;;5097397;28;20217;-59
2023/02/12 02:22:20;;;;;;;6.10;3.63;;;7.30;99.90;;;;;;5097375;28;20261;-59
2023/02/12 02:25:23;;;;;;;8.00;4.07;;;7.30;99.90;;;;;;5115732;28;20236;-58
2023/02/12 02:28:03;;;;;;;7.57;3.50;;;7.40;99.90;;;;;;5114999;28;20700;-58
2023/02/12 02:30:43;;;;;;;8.30;4.00;;;7.50;99.90;;;;;;5109659;28;20684;-58
2023/02/12 02:33:22;;;;;;;7.33;4.17;;;7.50;99.90;;;;;;5115309;28;20233;-58
2023/02/12 02:35:57;;;;;;;9.80;4.27;;;7.50;99.90;;;;;;5115243;28;20240;-59
2023/02/12 02:38:34;;;;;;;7.67;4.03;;;7.60;99.90;;;;;;5114903;28;20217;-58
2023/02/12 02:41:07;;;;;;;9.40;4.37;;;7.70;99.90;;;;;;5130220;27;20217;-58
2023/02/12 02:43:39;;;;;;;16.20;4.07;;;7.70;99.90;;;;;;5135561;27;20233;-58
2023/02/12 02:46:12;;;;;;;10.80;4.27;;;7.50;99.90;;;;;;5115140;28;20218;-58
2023/02/12 02:48:44;;;;;;;7.37;3.93;;;7.60;99.90;;;;;;5114934;28;20294;-58
2023/02/12 02:51:16;;;;;;;8.33;3.47;;;7.40;99.90;;;;;;5129393;27;20251;-58
2023/02/12 02:53:47;;;;;;;6.57;3.80;;;7.40;99.90;;;;;;5135685;27;20688;-59
2023/02/12 02:56:18;;;;;;;8.70;4.40;;;7.40;99.90;;;;;;5135738;27;20225;-59
2023/02/12 02:58:51;;;;;;;6.27;4.17;;;7.40;99.90;;;;;;5127711;27;20225;-59
2023/02/12 03:01:25;;;;;;;5.17;4.00;;;7.50;99.90;;;;;;5100645;27;20229;-58
2023/02/12 03:04:00;;;;;;;6.90;4.40;;;7.60;99.90;;;;;;5116961;27;20757;-59
2023/02/12 03:06:32;;;;;;;6.83;4.07;;;7.70;99.90;;;;;;5114611;28;20236;-59
2023/02/12 03:09:07;;;;;;;7.50;4.63;;;7.70;99.90;;;;;;5114740;28;20229;-58
2023/02/12 03:11:35;;;;;;;6.07;3.93;;;7.70;99.90;;;;;;5114929;27;20565;-58
2023/02/12 03:14:07;;;;;;;6.47;3.87;;;7.70;99.90;;;;;;5120955;27;20696;-58
2023/02/12 03:16:41;;;;;;;6.13;4.00;;;7.70;99.90;;;;;;5114341;28;20222;-59
2023/02/12 03:19:15;;;;;;;11.47;4.77;;;7.80;99.90;;;;;;5114524;28;20296;-58
2023/02/12 03:21:47;;;;;;;7.00;4.53;;;7.60;99.90;;;;;;5114185;28;20218;-58
2023/02/12 03:24:21;;;;;;;6.67;4.37;;;7.50;99.90;;;;;;5114394;28;20218;-58
2023/02/12 03:26:54;;;;;;;9.77;4.00;;;7.40;99.90;;;;;;5114417;28;20692;-58
2023/02/12 03:29:22;;;;;;;6.73;4.30;;;7.50;99.90;;;;;;5114163;28;20225;-58
2023/02/12 03:32:05;;;;;;;8.87;4.27;;;7.50;99.90;;;;;;5113321;28;20590;-59
2023/02/12 03:34:45;;;;;;;9.43;4.70;;;7.60;99.90;;;;;;5114090;28;20229;-58
2023/02/12 03:37:19;;;;;;;7.23;4.73;;;7.50;99.90;;;;;;5118207;27;20240;-58
2023/02/12 03:39:54;;;;;;;8.97;4.83;;;7.40;99.90;;;;;;5113515;28;20630;-59
2023/02/12 03:42:32;;;;;;;11.73;5.27;;;7.60;99.90;;;;;;5113871;28;20284;-59
2023/02/12 03:45:08;;;;;;;9.37;5.03;;;7.50;99.90;;;;;;5108405;28;20230;-58
2023/02/12 03:47:44;;;;;;;12.07;5.63;;;7.50;99.90;;;;;;5109092;28;20229;-58
2023/02/12 03:50:17;;;;;;;10.37;5.77;;;7.60;99.90;;;;;;5132731;27;20242;-58
2023/02/12 03:52:47;;;;;;;11.47;5.47;;;7.50;99.90;;;;;;5134487;27;20696;-58
2023/02/12 03:55:16;;;;;;;15.27;6.37;;;7.50;99.90;;;;;;5134625;27;20300;-59
2023/02/12 03:57:49;;;;;;;11.47;5.90;;;7.60;99.90;;;;;;5134457;27;20233;-58
2023/02/12 04:00:20;;;;;;;13.10;6.33;;;7.60;99.90;;;;;;5113644;27;20241;-58
2023/02/12 04:02:50;;;;;;;14.77;6.33;;;7.80;99.90;;;;;;5096147;28;20223;-59
2023/02/12 04:05:20;;;;;;;13.53;6.60;;;7.70;99.90;;;;;;5093771;28;20215;-58
2023/02/12 04:07:49;;;;;;;14.73;7.00;;;7.70;99.90;;;;;;5120341;27;20222;-59
2023/02/12 04:10:19;;;;;;;19.73;8.33;;;7.70;99.90;;;;;;5114087;27;20229;-58
2023/02/12 04:12:54;;;;;;;18.70;7.57;;;7.60;99.90;;;;;;5113570;28;20705;-58
2023/02/12 04:15:37;;;;;;;15.40;7.43;;;7.60;99.90;;;;;;5108167;28;20631;-58
2023/02/12 04:18:12;;;;;;;23.70;9.70;;;7.60;99.90;;;;;;5112843;28;20236;-59
2023/02/12 04:20:51;;;;;;;21.00;8.97;;;7.60;99.90;;;;;;5113290;28;20244;-58
2023/02/12 04:23:33;;;;;;;17.67;7.87;;;7.50;99.90;;;;;;5113396;28;20217;-58
2023/02/12 04:26:08;;;;;;;25.17;8.77;;;7.60;99.90;;;;;;5113592;28;20233;-58
2023/02/12 04:28:43;;;;;;;19.70;8.03;;;7.90;99.90;;;;;;5113076;28;20240;-58
2023/02/12 04:31:17;;;;;;;22.40;9.20;;;7.90;99.90;;;;;;5104808;27;20228;-58
2023/02/12 04:34:00;;;;;;;21.80;9.37;;;8.10;99.90;;;;;;5113319;28;20700;-59
2023/02/12 04:36:34;;;;;;;24.67;10.47;;;7.90;99.90;;;;;;5113209;28;20225;-58
2023/02/12 04:39:09;;;;;;;21.13;9.40;;;7.80;99.90;;;;;;5104620;28;20225;-58
2023/02/12 04:41:38;;;;;;;20.77;10.43;;;7.70;99.90;;;;;;5113009;28;20239;-59
2023/02/12 04:44:15;;;;;;;22.53;10.03;;;7.70;99.90;;;;;;5112929;28;20700;-58
2023/02/12 04:46:43;;;;;;;26.70;11.87;;;7.60;99.90;;;;;;5104406;28;20688;-59
2023/02/12 04:49:16;;;;;;;24.10;10.93;;;7.70;99.90;;;;;;5113079;28;20221;-58
2023/02/12 04:51:45;;;;;;;24.40;11.13;;;7.60;99.90;;;;;;5118875;28;20237;-59
2023/02/12 04:54:13;;;;;;;25.83;11.53;;;7.70;99.90;;;;;;5120143;28;20231;-58
2023/02/12 04:56:42;;;;;;;27.03;11.40;;;7.70;99.90;;;;;;5119831;28;20232;-58
2023/02/12 04:59:10;;;;;;;29.10;11.70;;;7.60;99.90;;;;;;5119951;28;20593;-59
2023/02/12 05:01:39;;;;;;;26.70;11.67;;;7.70;99.90;;;;;;5115455;27;20712;-58
2023/02/12 05:04:08;;;;;;;26.80;11.20;;;7.80;99.90;;;;;;5118543;28;20268;-58
2023/02/12 05:06:39;;;;;;;29.93;12.47;;;7.90;99.90;;;;;;5110792;28;20222;-58
2023/02/12 05:09:08;;;;;;;28.30;12.87;;;7.80;99.90;;;;;;5111153;28;20233;-58
2023/02/12 05:11:36;;;;;;;31.37;12.90;;;7.80;99.90;;;;;;5119432;28;20230;-59
2023/02/12 05:14:04;;;;;;;33.50;14.80;;;7.90;99.90;;;;;;5119808;28;20685;-59
2023/02/12 05:16:32;;;;;;;30.27;14.87;;;7.70;99.90;;;;;;5111200;28;20688;-58
2023/02/12 05:19:00;;;;;;;31.83;14.63;;;7.70;99.90;;;;;;5119571;28;20233;-59
2023/02/12 05:21:28;;;;;;;32.27;14.50;;;7.70;99.90;;;;;;5119621;28;20606;-58
2023/02/12 05:23:58;;;;;;;34.87;15.67;;;7.60;99.90;;;;;;5119840;28;20673;-58
2023/02/12 05:26:26;;;;;;;30.60;13.83;;;7.60;99.90;;;;;;5119359;28;20221;-59
2023/02/12 05:28:54;;;;;;;35.47;14.73;;;7.80;99.90;;;;;;5119362;28;20230;-59
2023/02/12 05:31:22;;;;;;;36.00;16.03;;;7.70;99.90;;;;;;5115060;27;20702;-58
2023/02/12 05:33:50;;;;;;;34.77;16.83;;;7.80;99.90;;;;;;5119049;28;20221;-58
2023/02/12 05:36:21;;;;;;;31.10;14.83;;;7.60;99.90;;;;;;5113087;27;20275;-59
2023/02/12 05:38:50;;;;;;;30.97;15.10;;;7.60;99.90;;;;;;5116503;27;20218;-59
2023/02/12 05:41:22;;;;;;;34.13;16.13;;;7.60;99.90;;;;;;5126403;27;20233;-58
2023/02/12 05:43:50;;;;;;;34.17;16.83;;;7.60;99.90;;;;;;5118690;27;20237;-58
2023/02/12 05:46:20;;;;;;;30.90;15.97;;;7.70;99.90;;;;;;5117579;27;20233;-58
2023/02/12 05:48:48;;;;;;;33.80;16.60;;;7.70;99.90;;;;;;5119192;28;20627;-58
2023/02/12 05:51:20;;;;;;;36.57;16.90;;;7.80;99.90;;;;;;5119223;28;20264;-58
2023/02/12 05:53:49;;;;;;;36.57;17.23;;;7.80;99.90;;;;;;5118967;28;20241;-58
2023/02/12 05:56:21;;;;;;;34.57;17.23;;;7.70;99.90;;;;;;5119581;28;20225;-58
2023/02/12 05:58:52;;;;;;;34.30;17.03;;;7.70;99.90;;;;;;5119360;28;20221;-58
2023/02/12 06:01:23;;;;;;;37.57;18.50;;;7.60;99.90;;;;;;5118144;28;20237;-59
2023/02/12 06:03:52;;;;;;;31.63;14.50;;;7.50;99.90;;;;;;5115071;28;20305;-59
2023/02/12 06:06:20;;;;;;;38.03;18.63;;;7.50;99.90;;;;;;5113139;28;20229;-57
2023/02/12 06:08:49;;;;;;;39.27;17.80;;;7.70;99.90;;;;;;5115569;27;20225;-58
2023/02/12 06:11:18;;;;;;;37.43;17.50;;;7.70;99.90;;;;;;5115803;28;20230;-58
2023/02/12 06:13:48;;;;;;;44.10;17.40;;;7.70;99.90;;;;;;5115751;28;20687;-58
2023/02/12 06:16:18;;;;;;;38.80;17.03;;;7.80;99.90;;;;;;5107290;27;20225;-59
2023/02/12 06:18:47;;;;;;;39.20;17.00;;;8.00;99.90;;;;;;5099483;27;20244;-59
2023/02/12 06:21:15;;;;;;;40.23;17.80;;;8.20;99.90;;;;;;5115520;28;20715;-59
2023/02/12 06:23:43;;;;;;;43.97;20.27;;;8.00;99.90;;;;;;5115161;28;20222;-58
2023/02/12 06:26:11;;;;;;;44.90;19.77;;;8.00;99.90;;;;;;5115427;28;20240;-58
2023/02/12 06:28:39;;;;;;;36.33;18.37;;;7.80;99.90;;;;;;5112958;28;20558;-58
2023/02/12 06:31:18;;;;;;;39.63;18.83;;;7.70;99.90;;;;;;5114716;28;20238;-58
2023/02/12 06:33:47;;;;;;;30.90;15.30;;;7.60;99.90;;;;;;5115070;28;20268;-58
2023/02/12 06:36:15;;;;;;;39.13;19.50;;;7.70;99.90;;;;;;5114606;28;20229;-58
2023/02/12 06:38:43;;;;;;;38.93;18.20;;;7.80;99.90;;;;;;5113761;28;20573;-58
2023/02/12 06:41:12;;;;;;;34.20;17.37;;;7.90;99.90;;;;;;5114736;28;20229;-58
2023/02/12 06:43:40;;;;;;;35.43;18.30;;;7.70;99.90;;;;;;5120426;27;20229;-59
2023/02/12 06:46:09;;;;;;;35.10;18.27;;;7.60;99.90;;;;;;5128039;27;20225;-58
2023/02/12 06:48:38;;;;;;;32.43;17.93;;;7.70;99.90;;;;;;5124263;27;20222;-58
2023/02/12 06:51:08;;;;;;;35.63;18.57;;;7.60;99.90;;;;;;5124080;27;20217;-59
2023/02/12 06:53:36;;;;;;;33.97;17.27;;;7.70;99.90;;;;;;5121826;27;20229;-58
2023/02/12 06:56:10;;;;;;;31.70;17.40;;;7.70;99.90;;;;;;5124283;27;20271;-59
2023/02/12 06:58:38;;;;;;;33.13;17.10;;;7.60;99.90;;;;;;5122554;27;20226;-59
2023/02/12 07:01:12;;;;;;;30.60;15.33;;;7.60;99.90;;;;;;5122624;27;20229;-58
2023/02/12 07:03:42;;;;;;;32.00;15.63;;;7.70;99.90;;;;;;5115035;28;20230;-59
2023/02/12 07:06:11;;;;;;;34.43;16.53;;;7.70;99.90;;;;;;5122615;27;20550;-58
2023/02/12 07:08:39;;;;;;;33.67;17.60;;;7.70;99.90;;;;;;5134991;27;20225;-58
2023/02/12 07:11:07;;;;;;;38.37;17.90;;;7.60;99.90;;;;;;5135567;27;20707;-58
2023/02/12 07:13:36;;;;;;;34.83;17.50;;;7.60;99.90;;;;;;5129040;27;20225;-58
2023/02/12 07:16:05;;;;;;;36.03;17.60;;;7.60;99.90;;;;;;5114314;28;20248;-58
2023/02/12 07:18:34;;;;;;;37.60;18.43;;;7.60;99.90;;;;;;5114363;28;20221;-58
2023/02/12 07:21:05;;;;;;;38.33;18.90;;;7.50;99.90;;;;;;5114564;28;20241;-58
2023/02/12 07:23:34;;;;;;;41.47;18.43;;;7.50;99.90;;;;;;5119900;27;20226;-58
2023/02/12 07:26:04;;;;;;;35.63;17.80;;;7.60;99.90;;;;;;5124700;27;20228;-58
2023/02/12 07:28:33;;;;;;;36.37;18.27;;;7.60;99.90;;;;;;5125762;27;20576;-57
2023/02/12 07:31:07;;;;;;;38.57;18.30;;;7.60;99.90;;;;;;5134621;27;20717;-58
2023/02/12 07:33:36;;;;;;;36.63;17.93;;;7.60;99.90;;;;;;5134803;27;20225;-59
2023/02/12 07:36:07;;;;;;;36.97;16.27;;;7.60;99.90;;;;;;5134883;27;20226;-58
2023/02/12 07:38:38;;;;;;;41.63;19.37;;;7.80;99.90;;;;;;5126064;27;20228;-58
2023/02/12 07:41:08;;;;;;;37.23;19.00;;;7.70;99.90;;;;;;5131599;27;20235;-59
2023/02/12 07:43:38;;;;;;;36.27;17.50;;;7.60;99.90;;;;;;5122469;27;20636;-58
2023/02/12 07:46:08;;;;;;;34.57;17.50;;;7.70;99.90;;;;;;5119738;27;20693;-58
2023/02/12 07:48:36;;;;;;;37.83;19.27;;;7.70;99.90;;;;;;5123713;27;20268;-58
2023/02/12 07:51:08;;;;;;;40.30;18.67;;;7.60;99.90;;;;;;5118536;27;20225;-58
2023/02/12 07:53:37;;;;;;;36.00;18.27;;;7.80;99.90;;;;;;5121890;27;20221;-58
2023/02/12 07:56:06;;;;;;;34.73;18.03;;;7.70;99.90;;;;;;5123180;27;20574;-59
2023/02/12 07:58:35;;;;;;;34.50;18.60;;;7.70;99.90;;;;;;5123041;27;20213;-58
2023/02/12 08:01:12;;;;;;;36.57;18.13;;;7.70;99.90;;;;;;5120880;27;20221;-58
2023/02/12 08:03:41;;;;;;;32.73;18.43;;;7.70;99.90;;;;;;5122990;27;20291;-58
2023/02/12 08:06:20;;;;;;;34.03;17.33;;;7.70;99.90;;;;;;5119211;27;20233;-58
2023/02/12 08:08:51;;;;;;;31.90;16.97;;;7.70;99.90;;;;;;5105917;28;20706;-59
2023/02/12 08:11:19;;;;;;;30.17;17.33;;;7.70;99.90;;;;;;5113888;28;20226;-59
2023/02/12 08:13:48;;;;;;;33.77;17.43;;;7.60;99.90;;;;;;5113210;28;20677;-58
2023/02/12 08:16:17;;;;;;;33.03;16.77;;;7.60;99.90;;;;;;5113270;27;20225;-58
2023/02/12 08:18:45;;;;;;;32.33;17.30;;;7.60;99.90;;;;;;5113582;28;20692;-59
2023/02/12 08:21:17;;;;;;;27.17;15.50;;;7.60;99.90;;;;;;5118268;27;20618;-58
2023/02/12 08:23:48;;;;;;;28.80;16.70;;;7.60;99.90;;;;;;5119365;27;20236;-59
2023/02/12 08:26:19;;;;;;;28.10;14.53;;;7.60;99.90;;;;;;5121745;27;20229;-58
2023/02/12 08:28:49;;;;;;;28.47;16.13;;;7.60;99.90;;;;;;5119553;27;20234;-58
2023/02/12 08:31:19;;;;;;;25.73;14.47;;;7.70;99.90;;;;;;5121741;27;20645;-58
2023/02/12 08:33:48;;;;;;;23.43;14.20;;;7.70;99.90;;;;;;5116459;27;20253;-59
2023/02/12 08:36:20;;;;;;;25.17;15.03;;;7.70;99.90;;;;;;5113358;28;20225;-58
2023/02/12 08:38:49;;;;;;;25.40;14.37;;;7.70;99.90;;;;;;5112759;28;20229;-59
2023/02/12 08:41:19;;;;;;;21.80;13.80;;;7.70;99.90;;;;;;5113107;28;20267;-58
2023/02/12 08:43:49;;;;;;;25.83;15.33;;;7.70;99.90;;;;;;5118867;27;20237;-58
2023/02/12 08:46:20;;;;;;;26.47;15.00;;;7.70;99.90;;;;;;5114332;28;20237;-57
2023/02/12 08:48:48;;;;;;;24.77;15.10;;;7.70;99.90;;;;;;5111122;28;20218;-58
2023/02/12 08:51:19;;;;;;;25.37;15.40;;;7.70;99.90;;;;;;5126014;28;20232;-58
2023/02/12 08:53:51;;;;;;;25.37;14.97;;;7.70;99.90;;;;;;5133315;28;20233;-58
2023/02/12 08:56:19;;;;;;;23.60;14.80;;;7.70;99.90;;;;;;5133465;28;20232;-58
2023/02/12 08:58:47;;;;;;;22.50;14.97;;;7.80;99.90;;;;;;5133682;28;20236;-58
2023/02/12 09:01:19;;;;;;;27.07;14.97;;;7.80;99.90;;;;;;5127461;28;20233;-59
2023/02/12 09:03:47;;;;;;;26.63;15.37;;;7.80;99.90;;;;;;5112530;28;20231;-59
2023/02/12 09:06:18;;;;;;;23.80;15.03;;;7.90;99.90;;;;;;5121283;28;20607;-58
2023/02/12 09:08:47;;;;;;;24.03;14.97;;;7.90;99.90;;;;;;5115296;28;20237;-59
2023/02/12 09:11:17;;;;;;;24.90;14.87;;;7.90;99.90;;;;;;5113174;28;20267;-58
2023/02/12 09:13:46;;;;;;;25.33;15.20;;;8.00;99.90;;;;;;5112956;28;20233;-58
2023/02/12 09:16:15;;;;;;;26.30;15.20;;;8.00;99.90;;;;;;5102855;28;20265;-58
2023/02/12 09:18:44;;;;;;;22.40;14.73;;;8.00;99.90;;;;;;5108019;28;20286;-59
2023/02/12 09:21:15;;;;;;;24.13;14.97;;;8.00;99.90;;;;;;5107556;28;20307;-58
2023/02/12 09:23:44;;;;;;;24.33;15.57;;;8.00;99.90;;;;;;5108394;28;20230;-59
2023/02/12 09:26:15;;;;;;;23.17;14.77;;;8.00;99.90;;;;;;5108238;28;20222;-56
2023/02/12 09:28:43;;;;;;;24.10;14.60;;;8.00;99.90;;;;;;5108158;28;20232;-58
2023/02/12 09:31:13;;;;;;;23.87;14.50;;;8.10;99.90;;;;;;5106731;28;20226;-58
2023/02/12 09:33:42;;;;;;;27.37;14.87;;;8.10;99.90;;;;;;5106806;28;20226;-58
2023/02/12 09:36:12;;;;;;;26.57;16.00;;;8.10;99.90;;;;;;5107456;28;20697;-58
2023/02/12 09:38:40;;;;;;;26.80;15.47;;;8.10;99.90;;;;;;5109301;28;20233;-58
2023/02/12 09:41:26;;;;;;;23.97;14.47;;;8.10;99.90;;;;;;5112368;28;20222;-59
2023/02/12 09:44:00;;;;;;;25.47;14.70;;;8.10;99.90;;;;;;5111510;28;20237;-58
2023/02/12 09:46:31;;;;;;;26.33;15.60;;;8.10;99.90;;;;;;5111783;28;20731;-58
2023/02/12 09:49:08;;;;;;;24.57;14.97;;;8.10;99.90;;;;;;5112194;28;20241;-58
2023/02/12 09:51:39;;;;;;;26.73;14.60;;;8.10;99.90;;;;;;5111027;28;20241;-58
2023/02/12 09:54:13;;;;;;;25.67;13.77;;;8.20;99.90;;;;;;5110792;28;20222;-58
2023/02/12 09:56:47;;;;;;;24.83;14.30;;;8.20;99.90;;;;;;5111672;28;20716;-58
2023/02/12 09:59:24;;;;;;;26.43;15.47;;;8.20;99.90;;;;;;5111699;28;20229;-55
2023/02/12 10:01:52;;;;;;;25.53;14.70;;;8.30;99.90;;;;;;5110046;28;20561;-58
2023/02/12 10:04:21;;;;;;;25.40;14.33;;;8.20;99.90;;;;;;5109398;28;20716;-58
2023/02/12 10:07:01;;;;;;;27.10;15.03;;;8.20;99.90;;;;;;5112256;27;20585;-58
2023/02/12 10:09:45;;;;;;;27.70;14.60;;;8.20;99.90;;;;;;5110965;28;20221;-57
2023/02/12 10:12:25;;;;;;;26.13;14.43;;;8.20;99.90;;;;;;5111219;28;20299;-59
2023/02/12 10:15:13;;;;;;;23.93;14.43;;;8.20;99.90;;;;;;5109493;28;20230;-58
2023/02/12 10:17:47;;;;;;;26.17;14.57;;;8.20;99.90;;;;;;5110408;28;20221;-58
2023/02/12 10:20:39;;;;;;;25.03;14.90;;;8.20;99.90;;;;;;5110017;28;20229;-58
2023/02/12 10:23:25;;;;;;;22.73;14.47;;;8.30;99.90;;;;;;5110580;28;20225;-58
2023/02/12 10:25:55;;;;;;;26.17;14.33;;;8.30;99.90;;;;;;5111237;28;20220;-58
2023/02/12 10:28:28;;;;;;;26.60;15.13;;;8.30;99.90;;;;;;5110488;28;20222;-58
2023/02/12 10:30:59;;;;;;;22.03;13.83;;;8.30;99.90;;;;;;5109901;28;20227;-57
2023/02/12 10:33:31;;;;;;;22.47;13.60;;;8.30;99.90;;;;;;5110645;28;20223;-58
2023/02/12 10:36:11;;;;;;;26.53;14.97;;;8.30;99.90;;;;;;5110958;28;20229;-58
2023/02/12 10:38:42;;;;;;;26.03;14.87;;;8.30;99.90;;;;;;5110239;28;20214;-59
2023/02/12 10:41:14;;;;;;;25.07;14.27;;;8.30;99.90;;;;;;5109591;28;20310;-58
2023/02/12 10:43:44;;;;;;;27.27;14.30;;;8.30;99.90;;;;;;5109408;28;20249;-58
2023/02/12 10:46:14;;;;;;;25.53;14.33;;;8.30;99.90;;;;;;5107837;28;20218;-58
2023/02/12 10:48:46;;;;;;;23.63;14.47;;;8.40;99.90;;;;;;5109533;28;20242;-54
2023/02/12 10:51:36;;;;;;;23.13;14.40;;;8.40;99.90;;;;;;5109514;28;20551;-58
2023/02/12 10:54:32;;;;;;;24.57;12.67;;;8.40;99.90;;;;;;5109133;28;20236;-58
2023/02/12 10:57:05;;;;;;;23.50;13.50;;;8.50;99.90;;;;;;5101023;28;20685;-57
2023/02/12 10:59:35;;;;;;;24.03;14.63;;;8.50;99.90;;;;;;5109031;28;20891;-58
2023/02/12 11:02:03;;;;;;;23.63;13.77;;;8.40;99.90;;;;;;5107675;28;20244;-57
2023/02/12 11:04:33;;;;;;;25.70;13.93;;;8.40;99.90;;;;;;5108247;28;20232;-57
2023/02/12 11:07:04;;;;;;;25.90;14.17;;;8.40;99.90;;;;;;5109315;28;20245;-56
2023/02/12 11:09:39;;;;;;;24.30;13.47;;;8.40;99.90;;;;;;5108879;28;20230;-58
2023/02/12 11:12:19;;;;;;;23.83;13.97;;;8.40;99.90;;;;;;5108757;28;20218;-58
2023/02/12 11:14:52;;;;;;;21.37;13.50;;;8.40;99.90;;;;;;5108942;27;20585;-58
2023/02/12 11:17:25;;;;;;;22.97;14.07;;;8.40;99.90;;;;;;5110185;28;20226;-58
2023/02/12 11:20:08;;;;;;;19.87;12.93;;;8.50;99.90;;;;;;5109015;28;20229;-58
2023/02/12 11:22:37;;;;;;;21.37;13.10;;;8.40;99.90;;;;;;5109482;28;20316;-58
2023/02/12 11:25:15;;;;;;;19.30;12.13;;;8.40;99.90;;;;;;5109487;28;20222;-58
2023/02/12 11:27:44;;;;;;;19.90;12.73;;;8.40;99.90;;;;;;5109920;28;20730;-57
2023/02/12 11:30:22;;;;;;;16.73;11.27;;;8.40;99.90;;;;;;5109243;28;20224;-59
2023/02/12 11:32:51;;;;;;;12.80;9.50;;;8.40;99.90;;;;;;5107300;28;20218;-54
2023/02/12 11:35:24;;;;;;;14.53;9.67;;;8.40;99.90;;;;;;5108398;28;20264;-58
2023/02/12 11:37:55;;;;;;;14.13;9.20;;;8.40;99.90;;;;;;5108742;28;20573;-59
2023/02/12 11:40:26;;;;;;;12.60;8.53;;;8.50;99.90;;;;;;5109501;28;20259;-58
2023/02/12 11:42:57;;;;;;;12.83;8.77;;;8.50;99.90;;;;;;5109164;28;20256;-58
2023/02/12 11:45:32;;;;;;;10.57;8.27;;;8.60;99.90;;;;;;5108945;28;20245;-58
2023/02/12 11:48:00;;;;;;;12.30;8.17;;;8.60;99.90;;;;;;5109927;28;20240;-58
2023/02/12 11:50:30;;;;;;;10.50;7.73;;;8.60;99.90;;;;;;5108933;28;20246;-57
2023/02/12 11:53:05;;;;;;;10.87;8.03;;;8.60;99.90;;;;;;5108252;28;20233;-58
2023/02/12 11:55:36;;;;;;;11.80;8.43;;;8.70;99.90;;;;;;5108229;28;20240;-58
2023/02/12 11:58:13;;;;;;;10.83;8.13;;;8.70;99.90;;;;;;5107321;28;20225;-58
2023/02/12 12:00:50;;;;;;;10.43;7.87;;;8.70;99.90;;;;;;5105668;28;20229;-58
2023/02/12 12:03:24;;;;;;;10.43;7.50;;;8.70;99.90;;;;;;5108208;28;20225;-58
2023/02/12 12:05:56;;;;;;;10.47;7.57;;;8.70;99.90;;;;;;5108693;28;20301;-58
2023/02/12 12:08:27;;;;;;;10.13;7.33;;;8.70;99.90;;;;;;5109105;27;20229;-58
2023/02/12 12:10:58;;;;;;;9.47;6.90;;;8.70;99.90;;;;;;5107720;28;20233;-59
2023/02/12 12:13:32;;;;;;;10.23;7.40;;;8.60;99.90;;;;;;5107730;28;20230;-58
2023/02/12 12:21:54;;;;;;;8.57;6.77;;;8.60;99.90;;;;;;5108426;28;20221;-59
2023/02/12 12:24:29;;;;;;;9.00;6.87;;;8.60;99.90;;;;;;5106330;28;20720;-58
2023/02/12 12:27:23;;;;;;;9.33;6.50;;;8.60;99.90;;;;;;5108947;28;20275;-58
2023/02/12 12:29:55;;;;;;;8.40;6.83;;;8.70;99.90;;;;;;5108273;28;20222;-58
2023/02/12 12:32:29;;;;;;;7.43;6.07;;;8.70;99.90;;;;;;5107804;28;20233;-58
2023/02/12 12:34:57;;;;;;;8.10;6.07;;;8.70;99.90;;;;;;5108693;28;20225;-58
2023/02/12 12:37:34;;;;;;;7.50;6.17;;;8.70;99.90;;;;;;5108259;28;20226;-58
2023/02/12 12:40:17;;;;;;;7.67;6.03;;;8.60;99.90;;;;;;5105749;28;20230;-59
2023/02/12 12:43:10;;;;;;;6.33;5.60;;;8.60;99.90;;;;;;5107866;28;20234;-58
2023/02/12 12:46:05;;;;;;;7.73;5.60;;;8.60;99.90;;;;;;5109196;28;20222;-58
2023/02/12 12:49:12;;;;;;;7.53;5.63;;;8.60;99.90;;;;;;5110984;28;20236;-58
2023/02/12 12:52:00;;;;;;;7.20;5.80;;;8.60;99.90;;;;;;5068205;28;20226;-59
2023/02/12 12:54:39;;;;;;;8.47;6.57;;;8.50;99.90;;;;;;5092468;28;20227;-58
2023/02/12 12:57:20;;;;;;;8.43;6.13;;;8.50;99.90;;;;;;5093251;28;20242;-58
2023/02/12 13:00:14;;;;;;;8.57;6.13;;;8.60;99.90;;;;;;5112261;28;20668;-59
2023/02/12 13:03:19;;;;;;;7.67;5.73;;;8.50;99.90;;;;;;5111729;28;20585;-59
2023/02/12 13:06:16;;;;;;;7.93;6.33;;;8.50;99.90;;;;;;5112731;28;20262;-59
2023/02/12 13:09:04;;;;;;;8.33;6.10;;;8.50;99.90;;;;;;5104489;28;20234;-58
2023/02/12 13:11:40;;;;;;;6.23;5.53;;;8.60;99.90;;;;;;5114143;28;20589;-58
2023/02/12 13:14:24;;;;;;;6.47;5.17;;;8.60;99.90;;;;;;5106280;28;20230;-58
2023/02/12 13:16:58;;;;;;;7.73;5.77;;;8.60;99.90;;;;;;5108253;28;20267;-59
2023/02/12 13:19:39;;;;;;;5.83;4.90;;;8.60;99.90;;;;;;5117057;28;20681;-59
2023/02/12 13:22:15;;;;;;;6.23;4.80;;;8.60;99.90;;;;;;5096723;28;20233;-58
2023/02/12 13:24:47;;;;;;;5.47;4.60;;;8.70;99.90;;;;;;5115485;28;20236;-57